createdAt,value
2023-04-16T00:01:19.551Z,12.00
2023-04-16T00:03:48.200Z,11.91
2023-04-16T00:06:17.016Z,11.90
2023-04-16T00:08:46.596Z,12.30
2023-04-16T00:11:15.201Z,11.87
2023-04-16T00:13:43.426Z,11.85
2023-04-16T00:16:11.821Z,11.79
2023-04-16T00:18:40.248Z,11.68
2023-04-16T00:21:09.187Z,11.76
2023-04-16T00:23:38.065Z,11.59
2023-04-16T00:26:08.089Z,11.92
2023-04-16T00:28:36.632Z,11.54
2023-04-16T00:31:05.215Z,11.50
2023-04-16T00:33:33.704Z,11.51
2023-04-16T00:36:02.221Z,11.58
2023-04-16T00:38:32.541Z,11.61
2023-04-16T00:41:01.128Z,11.55
2023-04-16T00:43:31.817Z,11.93
2023-04-16T00:46:00.428Z,11.61
2023-04-16T00:48:28.951Z,11.58
2023-04-16T00:50:57.403Z,11.55
2023-04-16T00:53:25.781Z,11.63
2023-04-16T00:55:56.168Z,11.78
2023-04-16T00:58:24.565Z,11.62
2023-04-16T01:00:54.514Z,11.96
2023-04-16T01:03:22.829Z,11.51
2023-04-16T01:05:52.014Z,11.65
2023-04-16T01:08:22.095Z,11.58
2023-04-16T01:10:50.683Z,11.40
2023-04-16T01:13:18.872Z,11.41
2023-04-16T01:15:47.550Z,11.45
2023-04-16T01:18:17.725Z,11.87
2023-04-16T01:20:48.156Z,11.94
2023-04-16T01:23:18.550Z,11.54
2023-04-16T01:25:47.037Z,11.27
2023-04-16T01:28:15.239Z,11.26
2023-04-16T01:30:43.689Z,11.26
2023-04-16T01:33:12.489Z,11.29
2023-04-16T01:35:41.153Z,11.15
2023-04-16T01:38:11.246Z,11.59
2023-04-16T01:40:39.806Z,11.07
2023-04-16T01:43:07.978Z,11.11
2023-04-16T01:45:36.691Z,11.03
2023-04-16T01:48:05.452Z,11.07
2023-04-16T01:50:34.067Z,11.01
2023-04-16T01:53:05.237Z,10.88
2023-04-16T01:55:35.684Z,11.23
2023-04-16T01:58:03.909Z,10.76
2023-04-16T02:00:32.357Z,10.75
2023-04-16T02:03:00.838Z,10.70
2023-04-16T02:05:29.403Z,10.65
2023-04-16T02:07:57.471Z,10.66
2023-04-16T02:10:26.007Z,10.73
2023-04-16T02:12:55.488Z,11.15
2023-04-16T02:15:25.431Z,10.69
2023-04-16T02:17:56.951Z,10.66
2023-04-16T02:20:25.764Z,10.79
2023-04-16T02:22:54.177Z,10.88
2023-04-16T02:25:23.224Z,10.90
2023-04-16T02:27:51.418Z,10.86
2023-04-16T02:30:21.458Z,11.28
2023-04-16T02:32:49.870Z,10.85
2023-04-16T02:35:18.280Z,10.81
2023-04-16T02:37:46.442Z,10.83
2023-04-16T02:40:15.130Z,10.32
2023-04-16T02:42:43.506Z,10.55
2023-04-16T02:45:12.650Z,10.78
2023-04-16T02:47:42.242Z,11.00
2023-04-16T02:50:11.336Z,10.80
2023-04-16T02:52:39.582Z,10.64
2023-04-16T02:55:08.823Z,10.81
2023-04-16T02:57:36.933Z,10.60
2023-04-16T03:00:06.412Z,10.78
2023-04-16T03:02:34.666Z,10.58
2023-04-16T03:05:04.915Z,11.02
2023-04-16T03:07:32.997Z,10.52
2023-04-16T03:10:01.583Z,10.40
2023-04-16T03:12:29.734Z,10.50
2023-04-16T03:14:59.015Z,10.61
2023-04-16T03:17:27.177Z,10.74
2023-04-16T03:19:55.671Z,10.85
2023-04-16T03:22:25.299Z,11.38
2023-04-16T03:24:53.714Z,11.00
2023-04-16T03:27:21.874Z,11.16
2023-04-16T03:29:50.449Z,11.19
2023-04-16T03:32:18.841Z,11.33
2023-04-16T03:34:47.249Z,11.39
2023-04-16T03:37:15.355Z,11.43
2023-04-16T03:39:45.219Z,11.93
2023-04-16T03:42:13.497Z,11.57
2023-04-16T03:44:41.940Z,11.55
2023-04-16T03:47:10.096Z,11.61
2023-04-16T03:49:38.558Z,11.69
2023-04-16T03:52:06.906Z,11.82
2023-04-16T03:54:35.522Z,11.86
2023-04-16T03:57:05.383Z,12.29
2023-04-16T03:59:33.871Z,11.83
2023-04-16T04:02:02.159Z,11.89
2023-04-16T04:04:30.711Z,11.89
2023-04-16T04:06:59.057Z,11.79
2023-04-16T04:09:27.536Z,11.85
2023-04-16T04:11:55.636Z,11.83
2023-04-16T04:14:25.528Z,12.34
2023-04-16T04:16:53.634Z,11.95
2023-04-16T04:19:22.100Z,11.95
2023-04-16T04:21:50.184Z,12.06
2023-04-16T04:24:18.603Z,11.97
2023-04-16T04:26:47.068Z,11.99
2023-04-16T04:29:15.737Z,12.00
2023-04-16T04:31:45.886Z,12.37
2023-04-16T04:34:14.343Z,12.08
2023-04-16T04:36:42.518Z,12.04
2023-04-16T04:39:11.220Z,12.09
2023-04-16T04:41:39.526Z,12.08
2023-04-16T04:44:07.970Z,12.07
2023-04-16T04:46:36.209Z,12.06
2023-04-16T04:49:06.347Z,12.51
2023-04-16T04:51:34.762Z,12.16
2023-04-16T04:54:03.286Z,12.04
2023-04-16T04:56:31.504Z,12.07
2023-04-16T04:58:59.866Z,11.99
2023-04-16T05:01:27.974Z,11.98
2023-04-16T05:03:56.595Z,11.97
2023-04-16T05:06:28.381Z,12.28
2023-04-16T05:08:58.235Z,11.96
2023-04-16T05:11:26.359Z,12.06
2023-04-16T05:13:54.801Z,12.09
2023-04-16T05:16:22.978Z,12.11
2023-04-16T05:18:51.823Z,12.08
2023-04-16T05:21:19.986Z,12.05
2023-04-16T05:23:49.845Z,12.83
2023-04-16T05:26:18.038Z,12.56
2023-04-16T05:28:46.786Z,12.80
2023-04-16T05:31:15.132Z,13.07
2023-04-16T05:33:43.595Z,13.31
2023-04-16T05:36:11.767Z,13.46
2023-04-16T05:38:40.142Z,13.55
2023-04-16T05:41:09.774Z,14.02
2023-04-16T05:43:38.266Z,13.73
2023-04-16T05:46:06.579Z,13.99
2023-04-16T05:48:34.956Z,14.10
2023-04-16T05:51:03.441Z,14.43
2023-04-16T05:53:31.989Z,14.78
2023-04-16T05:56:00.162Z,15.47
2023-04-16T05:58:29.929Z,17.24
2023-04-16T06:00:58.144Z,18.37
2023-04-16T06:03:26.614Z,19.07
2023-04-16T06:05:54.828Z,18.98
2023-04-16T06:08:23.487Z,18.74
2023-04-16T06:10:51.671Z,18.31
2023-04-16T06:13:20.252Z,18.28
2023-04-16T06:15:49.822Z,19.64
2023-04-16T06:18:18.280Z,21.14
2023-04-16T06:20:46.556Z,23.16
2023-04-16T06:23:15.784Z,24.63
2023-04-16T06:25:43.922Z,25.79
2023-04-16T06:28:12.372Z,26.81
2023-04-16T06:30:42.728Z,27.98
2023-04-16T06:33:13.955Z,29.33
2023-04-16T06:35:42.285Z,29.80
2023-04-16T06:38:10.870Z,30.39
2023-04-16T06:40:39.193Z,30.70
2023-04-16T06:43:08.320Z,31.00
2023-04-16T06:45:36.498Z,31.19
2023-04-16T06:48:05.548Z,30.72
2023-04-16T06:50:35.510Z,30.19
2023-04-16T06:53:04.179Z,29.21
2023-04-16T06:55:32.494Z,29.21
2023-04-16T06:58:01.077Z,28.70
2023-04-16T07:00:29.302Z,27.89
2023-04-16T07:02:58.588Z,27.23
2023-04-16T07:05:27.148Z,27.35
2023-04-16T07:07:57.816Z,28.62
2023-04-16T07:10:26.520Z,29.34
2023-04-16T07:16:24.950Z,31.61
2023-04-16T07:18:54.106Z,32.04
2023-04-16T07:21:23.564Z,32.32
2023-04-16T07:23:53.590Z,32.66
2023-04-16T07:26:23.068Z,33.20
2023-04-16T07:28:51.669Z,33.72
2023-04-16T07:31:20.043Z,34.20
2023-04-16T07:33:48.676Z,32.98
2023-04-16T07:36:16.842Z,31.56
2023-04-16T07:38:45.600Z,30.02
2023-04-16T07:41:15.971Z,29.63
2023-04-16T07:43:46.981Z,29.08
2023-04-16T07:46:15.229Z,29.30
2023-04-16T07:48:44.184Z,30.80
2023-04-16T07:51:12.674Z,32.32
2023-04-16T07:53:42.294Z,32.85
2023-04-16T07:56:10.727Z,32.10
2023-04-16T07:58:40.981Z,31.67
2023-04-16T08:01:09.442Z,32.24
2023-04-16T08:03:38.328Z,33.68
2023-04-16T08:06:07.164Z,33.50
2023-04-16T08:08:35.811Z,33.75
2023-04-16T08:11:04.118Z,34.37
2023-04-16T08:13:33.626Z,34.08
2023-04-16T08:16:04.209Z,34.88
2023-04-16T08:18:32.930Z,33.88
2023-04-16T08:21:01.619Z,32.36
2023-04-16T08:23:30.327Z,30.97
2023-04-16T08:25:58.563Z,29.71
2023-04-16T08:28:27.208Z,28.66
2023-04-16T08:30:55.912Z,29.28
2023-04-16T08:33:25.899Z,29.51
2023-04-16T08:35:54.211Z,28.82
2023-04-16T08:38:22.887Z,29.32
2023-04-16T08:40:51.452Z,32.04
2023-04-16T08:43:20.691Z,35.61
2023-04-16T08:45:49.101Z,37.28
2023-04-16T08:48:20.770Z,36.22
2023-04-16T08:50:55.441Z,34.63
2023-04-16T08:53:32.604Z,32.90
2023-04-16T08:56:01.660Z,31.16
2023-04-16T08:58:32.447Z,32.93
2023-04-16T09:01:00.941Z,35.68
2023-04-16T09:03:30.083Z,36.23
2023-04-16T09:06:00.392Z,34.83
2023-04-16T09:08:29.107Z,32.26
2023-04-16T09:10:58.029Z,30.68
2023-04-16T09:13:26.791Z,28.98
2023-04-16T09:15:57.286Z,28.31
2023-04-16T09:18:25.849Z,30.93
2023-04-16T09:20:56.416Z,31.84
2023-04-16T09:23:26.255Z,32.74
2023-04-16T09:25:55.735Z,31.12
2023-04-16T09:28:44.008Z,30.10
2023-04-16T09:31:13.980Z,28.50
2023-04-16T09:33:43.074Z,27.73
2023-04-16T09:36:12.096Z,27.55
2023-04-16T09:38:48.978Z,27.56
2023-04-16T09:41:17.851Z,26.83
2023-04-16T09:43:57.777Z,27.36
2023-04-16T09:46:26.941Z,27.44
2023-04-16T09:48:55.567Z,28.82
2023-04-16T09:51:24.934Z,31.61
2023-04-16T09:53:55.582Z,35.36
2023-04-16T09:56:26.502Z,37.43
2023-04-16T09:58:59.453Z,40.11
2023-04-16T10:01:27.882Z,42.00
2023-04-16T10:03:56.978Z,43.58
2023-04-16T10:06:27.503Z,45.57
2023-04-16T10:08:57.889Z,47.76
2023-04-16T10:11:26.081Z,50.04
2023-04-16T10:13:55.398Z,49.64
2023-04-16T10:16:24.162Z,50.00
2023-04-16T10:18:56.604Z,51.56
2023-04-16T10:21:29.072Z,50.37
2023-04-16T10:24:04.022Z,47.43
2023-04-16T10:26:33.277Z,43.12
2023-04-16T10:29:02.231Z,40.45
2023-04-16T10:31:30.697Z,37.33
2023-04-16T10:33:59.800Z,35.63
2023-04-16T10:36:28.252Z,37.68
2023-04-16T10:39:01.397Z,41.41
2023-04-16T10:41:30.528Z,43.98
2023-04-16T10:44:09.718Z,46.63
2023-04-16T10:46:39.882Z,47.98
2023-04-16T10:49:15.218Z,49.51
2023-04-16T10:51:43.641Z,49.13
2023-04-16T10:54:25.939Z,50.48
2023-04-16T10:56:55.589Z,49.43
2023-04-16T10:59:25.213Z,49.34
2023-04-16T11:01:54.866Z,49.75
2023-04-16T11:04:34.461Z,50.46
2023-04-16T11:07:07.675Z,49.80
2023-04-16T11:09:54.595Z,49.77
2023-04-16T11:12:27.857Z,44.85
2023-04-16T11:15:00.921Z,41.23
2023-04-16T11:17:31.000Z,38.28
2023-04-16T11:20:00.235Z,36.68
2023-04-16T11:22:29.207Z,35.80
2023-04-16T11:24:59.781Z,35.10
2023-04-16T11:27:28.280Z,33.47
2023-04-16T11:30:01.987Z,33.07
2023-04-16T11:32:32.860Z,32.54
2023-04-16T11:35:03.997Z,32.18
2023-04-16T11:37:36.029Z,33.47
2023-04-16T11:40:08.439Z,33.93
2023-04-16T11:42:38.099Z,33.79
2023-04-16T11:45:08.268Z,33.54
2023-04-16T11:47:45.910Z,33.29
2023-04-16T11:50:19.958Z,32.30
2023-04-16T11:52:48.622Z,30.98
2023-04-16T11:55:19.161Z,30.26
2023-04-16T11:57:47.724Z,29.29
2023-04-16T12:00:17.178Z,29.02
2023-04-16T12:02:47.120Z,28.75
2023-04-16T12:05:30.971Z,29.21
2023-04-16T12:08:00.339Z,29.06
2023-04-16T12:10:30.801Z,29.35
2023-04-16T12:13:11.877Z,29.79
2023-04-16T12:15:48.526Z,29.67
2023-04-16T12:18:17.694Z,29.13
2023-04-16T12:20:47.579Z,29.15
2023-04-16T12:23:26.894Z,29.16
2023-04-16T12:25:59.844Z,28.42
2023-04-16T12:28:30.004Z,28.23
2023-04-16T12:30:58.620Z,27.46
2023-04-16T12:33:27.010Z,27.02
2023-04-16T12:35:55.613Z,26.58
2023-04-16T12:38:24.703Z,26.05
2023-04-16T12:40:56.887Z,25.95
2023-04-16T12:43:26.932Z,26.16
2023-04-16T12:45:55.605Z,25.63
2023-04-16T12:48:23.906Z,25.57
2023-04-16T12:50:54.970Z,25.86
2023-04-16T12:53:23.142Z,25.31
2023-04-16T12:55:51.680Z,25.25
2023-04-16T12:58:20.070Z,25.26
2023-04-16T13:00:50.021Z,25.68
2023-04-16T13:03:18.523Z,25.30
2023-04-16T13:05:47.186Z,25.35
2023-04-16T13:08:15.636Z,25.62
2023-04-16T13:10:44.431Z,26.03
2023-04-16T13:13:12.722Z,26.33
2023-04-16T13:15:41.406Z,26.68
2023-04-16T13:18:11.122Z,27.21
2023-04-16T13:20:40.101Z,26.87
2023-04-16T13:23:08.923Z,26.60
2023-04-16T13:25:37.966Z,26.37
2023-04-16T13:28:06.491Z,26.33
2023-04-16T13:30:35.283Z,26.09
2023-04-16T13:33:03.790Z,25.80
2023-04-16T13:35:33.882Z,26.05
2023-04-16T13:38:02.452Z,25.72
2023-04-16T13:40:31.162Z,25.70
2023-04-16T13:42:59.467Z,25.08
2023-04-16T13:45:28.210Z,24.89
2023-04-16T13:47:56.964Z,24.91
2023-04-16T13:50:25.780Z,24.87
2023-04-16T13:52:56.536Z,24.90
2023-04-16T13:55:25.402Z,24.66
2023-04-16T13:57:53.881Z,24.55
2023-04-16T14:00:22.800Z,24.44
2023-04-16T14:02:51.231Z,24.30
2023-04-16T14:05:20.804Z,24.32
2023-04-16T14:07:49.056Z,24.28
2023-04-16T14:10:19.468Z,24.63
2023-04-16T14:12:47.740Z,24.07
2023-04-16T14:15:16.298Z,24.19
2023-04-16T14:17:45.571Z,24.35
2023-04-16T14:20:15.748Z,24.41
2023-04-16T14:22:44.993Z,24.33
2023-04-16T14:25:13.688Z,24.46
2023-04-16T14:27:43.301Z,24.98
2023-04-16T14:30:12.413Z,24.72
2023-04-16T14:32:40.843Z,24.54
2023-04-16T14:35:10.451Z,24.70
2023-04-16T14:37:39.107Z,24.65
2023-04-16T14:40:09.920Z,24.81
2023-04-16T14:42:38.902Z,24.77
2023-04-16T14:45:10.367Z,25.00
2023-04-16T14:47:45.916Z,24.48
2023-04-16T14:50:15.758Z,24.29
2023-04-16T14:52:44.226Z,24.05
2023-04-16T14:55:12.671Z,23.84
2023-04-16T14:57:41.659Z,23.62
2023-04-16T15:00:13.705Z,23.95
2023-04-16T15:02:42.540Z,23.39
2023-04-16T15:05:11.630Z,23.40
2023-04-16T15:07:41.306Z,23.20
2023-04-16T15:10:10.853Z,23.21
2023-04-16T15:12:39.294Z,22.99
2023-04-16T15:15:12.136Z,23.27
2023-04-16T15:17:40.732Z,23.14
2023-04-16T15:20:10.766Z,23.45
2023-04-16T15:22:39.537Z,23.04
2023-04-16T15:25:09.095Z,23.15
2023-04-16T15:27:37.669Z,22.88
2023-04-16T15:30:07.554Z,22.89
2023-04-16T15:32:37.298Z,23.06
2023-04-16T15:35:06.428Z,22.75
2023-04-16T15:37:34.677Z,22.49
2023-04-16T15:40:05.564Z,22.55
2023-04-16T15:42:33.840Z,22.58
2023-04-16T15:45:02.318Z,22.45
2023-04-16T15:47:30.676Z,22.39
2023-04-16T15:50:00.683Z,22.73
2023-04-16T15:52:29.132Z,22.40
2023-04-16T15:54:57.654Z,22.19
2023-04-16T15:57:26.028Z,21.94
2023-04-16T16:00:06.392Z,21.80
2023-04-16T16:02:38.434Z,21.76
2023-04-16T16:05:10.797Z,22.37
2023-04-16T16:07:39.130Z,21.83
2023-04-16T16:10:08.996Z,21.98
2023-04-16T16:12:37.960Z,21.78
2023-04-16T16:15:07.727Z,21.84
2023-04-16T16:17:36.256Z,21.64
2023-04-16T16:20:10.449Z,21.51
2023-04-16T16:22:40.723Z,21.58
2023-04-16T16:25:10.435Z,21.31
2023-04-16T16:27:38.751Z,21.07
2023-04-16T16:30:08.885Z,21.27
2023-04-16T16:32:40.220Z,20.89
2023-04-16T16:35:09.808Z,20.99
2023-04-16T16:37:39.984Z,21.14
2023-04-16T16:40:09.528Z,20.85
2023-04-16T16:42:37.859Z,20.47
2023-04-16T16:45:07.045Z,20.45
2023-04-16T16:47:35.386Z,20.38
2023-04-16T16:50:05.496Z,20.30
2023-04-16T16:52:34.690Z,20.22
2023-04-16T16:55:04.645Z,20.49
2023-04-16T16:57:33.002Z,20.07
2023-04-16T17:00:01.557Z,20.00
2023-04-16T17:02:29.905Z,19.95
2023-04-16T17:05:00.327Z,19.94
2023-04-16T17:07:28.624Z,19.82
2023-04-16T17:09:58.134Z,19.76
2023-04-16T17:12:29.434Z,20.08
2023-04-16T17:14:58.003Z,19.61
2023-04-16T17:17:28.170Z,19.91
2023-04-16T17:19:56.669Z,19.49
2023-04-16T17:22:24.862Z,19.34
2023-04-16T17:24:53.383Z,19.22
2023-04-16T17:27:21.819Z,19.22
2023-04-16T17:29:53.011Z,19.59
2023-04-16T17:32:21.509Z,19.20
2023-04-16T17:34:50.306Z,19.10
2023-04-16T17:37:18.754Z,19.07
2023-04-16T17:39:47.336Z,18.98
2023-04-16T17:42:15.569Z,18.92
2023-04-16T17:44:44.165Z,18.92
2023-04-16T17:47:13.873Z,18.99
2023-04-16T17:49:45.268Z,18.68
2023-04-16T17:52:13.531Z,18.67
2023-04-16T17:54:42.183Z,18.71
2023-04-16T17:57:10.536Z,18.60
2023-04-16T17:59:39.149Z,18.58
2023-04-16T18:02:07.609Z,18.50
2023-04-16T18:04:38.027Z,18.78
2023-04-16T18:07:06.793Z,18.35
2023-04-16T18:09:35.869Z,18.27
2023-04-16T18:12:04.210Z,18.27
2023-04-16T18:14:32.858Z,18.21
2023-04-16T18:17:02.636Z,18.06
2023-04-16T18:19:32.893Z,18.05
2023-04-16T18:22:02.593Z,18.46
2023-04-16T18:24:33.326Z,18.03
2023-04-16T18:27:01.655Z,17.98
2023-04-16T18:29:33.552Z,17.91
2023-04-16T18:32:04.134Z,17.74
2023-04-16T18:34:33.314Z,17.57
2023-04-16T18:37:03.330Z,17.87
2023-04-16T18:39:33.915Z,17.81
2023-04-16T18:42:03.396Z,17.32
2023-04-16T18:44:31.898Z,17.28
2023-04-16T18:47:00.289Z,17.25
2023-04-16T18:49:28.875Z,17.22
2023-04-16T18:51:57.213Z,17.25
2023-04-16T18:54:27.682Z,17.55
2023-04-16T18:56:57.311Z,17.23
2023-04-16T18:59:26.698Z,17.23
2023-04-16T19:01:55.030Z,17.17
2023-04-16T19:04:23.777Z,17.02
2023-04-16T19:06:51.968Z,16.48
2023-04-16T19:09:20.551Z,16.79
2023-04-16T19:11:50.739Z,17.31
2023-04-16T19:14:19.406Z,17.04
2023-04-16T19:16:47.774Z,17.03
2023-04-16T19:19:16.402Z,16.96
2023-04-16T19:21:44.663Z,16.75
2023-04-16T19:24:13.288Z,16.76
2023-04-16T19:26:41.517Z,16.71
2023-04-16T19:29:11.894Z,17.00
2023-04-16T19:31:40.266Z,16.55
2023-04-16T19:34:08.991Z,16.55
2023-04-16T19:36:37.276Z,16.45
2023-04-16T19:39:06.314Z,16.54
2023-04-16T19:41:34.981Z,16.52
2023-04-16T19:44:03.602Z,16.60
2023-04-16T19:46:33.350Z,16.94
2023-04-16T19:49:01.958Z,16.58
2023-04-16T19:51:30.409Z,16.61
2023-04-16T19:53:59.786Z,16.50
2023-04-16T19:56:28.081Z,16.52
2023-04-16T19:58:56.867Z,16.48
2023-04-16T20:01:25.434Z,16.48
2023-04-16T20:03:55.790Z,16.89
2023-04-16T20:06:24.240Z,16.50
2023-04-16T20:08:52.862Z,16.44
2023-04-16T20:11:21.400Z,16.42
2023-04-16T20:13:50.233Z,16.30
2023-04-16T20:16:22.872Z,16.22
2023-04-16T20:18:54.437Z,16.17
2023-04-16T20:21:25.230Z,17.21
2023-04-16T20:23:53.824Z,16.19
2023-04-16T20:26:24.080Z,16.13
2023-04-16T20:28:52.969Z,16.12
2023-04-16T20:31:21.829Z,16.10
2023-04-16T20:33:50.373Z,15.98
2023-04-16T20:36:18.647Z,15.91
2023-04-16T20:38:48.686Z,16.30
2023-04-16T20:41:21.511Z,15.85
2023-04-16T20:43:52.923Z,15.83
2023-04-16T20:46:24.452Z,15.76
2023-04-16T20:48:53.073Z,15.77
2023-04-16T20:51:21.627Z,15.75
2023-04-16T20:53:52.283Z,16.03
2023-04-16T20:56:20.698Z,15.59
2023-04-16T20:58:49.208Z,15.42
2023-04-16T21:01:18.461Z,15.41
2023-04-16T21:03:47.248Z,15.40
2023-04-16T21:06:17.939Z,15.47
2023-04-16T21:08:46.718Z,15.32
2023-04-16T21:11:16.289Z,15.44
2023-04-16T21:13:44.868Z,15.06
2023-04-16T21:16:13.369Z,15.11
2023-04-16T21:18:42.098Z,14.99
2023-04-16T21:21:10.400Z,15.05
2023-04-16T21:23:39.318Z,14.88
2023-04-16T21:26:07.571Z,14.86
2023-04-16T21:28:37.838Z,15.24
2023-04-16T21:31:06.184Z,14.81
2023-04-16T21:33:34.741Z,14.57
2023-04-16T21:36:02.932Z,14.66
2023-04-16T21:38:31.554Z,14.70
2023-04-16T21:40:59.721Z,14.69
2023-04-16T21:43:29.149Z,14.70
2023-04-16T21:45:58.920Z,15.04
2023-04-16T21:48:28.600Z,14.58
2023-04-16T21:50:58.116Z,14.68
2023-04-16T21:53:28.147Z,14.47
2023-04-16T21:55:56.619Z,14.53
2023-04-16T21:58:26.801Z,14.25
2023-04-16T22:00:55.165Z,14.19
2023-04-16T22:03:26.532Z,14.40
2023-04-16T22:05:58.167Z,15.18
2023-04-16T22:08:27.258Z,14.14
2023-04-16T22:10:59.107Z,14.61
2023-04-16T22:13:27.978Z,13.93
2023-04-16T22:15:56.436Z,14.06
2023-04-16T22:18:26.559Z,14.39
2023-04-16T22:20:55.802Z,14.13
2023-04-16T22:23:24.615Z,14.14
2023-04-16T22:25:56.760Z,14.51
2023-04-16T22:28:25.403Z,13.89
2023-04-16T22:30:53.527Z,13.76
2023-04-16T22:33:22.026Z,13.78
2023-04-16T22:35:51.525Z,14.17
2023-04-16T22:38:20.050Z,13.77
2023-04-16T22:40:48.550Z,13.92
2023-04-16T22:43:17.790Z,13.71
2023-04-16T22:45:47.297Z,13.71
2023-04-16T22:48:16.502Z,13.63
2023-04-16T22:50:48.746Z,14.05
2023-04-16T22:53:18.686Z,14.05
2023-04-16T22:55:46.823Z,13.56
2023-04-16T22:58:16.822Z,13.56
2023-04-16T23:00:45.228Z,13.63
2023-04-16T23:03:13.737Z,13.51
2023-04-16T23:05:41.828Z,13.30
2023-04-16T23:08:10.359Z,13.15
2023-04-16T23:10:40.053Z,13.34
2023-04-16T23:13:08.531Z,13.06
2023-04-16T23:15:36.724Z,13.08
2023-04-16T23:18:05.368Z,12.67
2023-04-16T23:20:33.693Z,12.33
2023-04-16T23:23:02.084Z,12.72
2023-04-16T23:25:30.256Z,12.80
2023-04-16T23:28:00.164Z,13.29
2023-04-16T23:30:28.414Z,12.71
2023-04-16T23:32:56.984Z,12.48
2023-04-16T23:35:25.574Z,12.81
2023-04-16T23:37:54.003Z,12.81
2023-04-16T23:40:22.180Z,12.87
2023-04-16T23:42:50.795Z,12.97
2023-04-16T23:45:20.372Z,13.37
2023-04-16T23:47:51.134Z,12.96
2023-04-16T23:50:19.388Z,12.95
2023-04-16T23:52:49.037Z,12.92
2023-04-16T23:55:17.198Z,12.86
2023-04-16T23:57:45.647Z,12.91
